Terminal Aerodrome Forecast
Issued by NWS

Home | Current Version | Previous Version | Text Only | Print | Product List | Glossary On
Versions: 1 2 3 4 5 6 7 8 9 10 11 12 13 14 15 16
000
FTUS42 TJSJ 301253 AAA
TAFJBQ
TAF AMD
TJBQ 301253Z 3013/0112 10012KT P6SM SCT020 SCT050
     FM301500 08018G26KT P6SM SCT030
     FM302300 09014KT P6SM FEW022
     FM010300 10006KT P6SM FEW022
      AMD NOT SKED 0102/0111=

USA.gov is the U.S. government's official web portal to all federal, state and local government web resources and services.